sensor_id;sensor_type;location;lat;lon;timestamp;P1;durP1;ratioP1;P2;durP2;ratioP2
58366;SDS011;57745;42.524;12.052;2024-02-04T00:01:15;7.00;;;3.47;;
58366;SDS011;57745;42.524;12.052;2024-02-04T00:03:40;7.50;;;3.45;;
58366;SDS011;57745;42.524;12.052;2024-02-04T00:06:06;5.82;;;3.85;;
58366;SDS011;57745;42.524;12.052;2024-02-04T00:08:32;6.97;;;4.20;;
58366;SDS011;57745;42.524;12.052;2024-02-04T00:10:57;6.78;;;3.88;;
58366;SDS011;57745;42.524;12.052;2024-02-04T00:13:23;7.90;;;4.03;;
58366;SDS011;57745;42.524;12.052;2024-02-04T00:15:48;5.55;;;3.42;;
58366;SDS011;57745;42.524;12.052;2024-02-04T00:18:14;6.28;;;3.55;;
58366;SDS011;57745;42.524;12.052;2024-02-04T00:20:39;5.90;;;3.33;;
58366;SDS011;57745;42.524;12.052;2024-02-04T00:23:04;5.80;;;3.60;;
58366;SDS011;57745;42.524;12.052;2024-02-04T00:25:30;5.85;;;3.80;;
58366;SDS011;57745;42.524;12.052;2024-02-04T00:27:56;4.43;;;3.13;;
58366;SDS011;57745;42.524;12.052;2024-02-04T00:30:21;7.63;;;3.75;;
58366;SDS011;57745;42.524;12.052;2024-02-04T00:32:46;5.95;;;3.58;;
58366;SDS011;57745;42.524;12.052;2024-02-04T00:35:12;6.53;;;3.35;;
58366;SDS011;57745;42.524;12.052;2024-02-04T00:37:37;4.95;;;3.28;;
58366;SDS011;57745;42.524;12.052;2024-02-04T00:40:03;6.00;;;3.28;;
58366;SDS011;57745;42.524;12.052;2024-02-04T00:42:29;5.47;;;3.35;;
58366;SDS011;57745;42.524;12.052;2024-02-04T00:44:54;7.75;;;3.50;;
58366;SDS011;57745;42.524;12.052;2024-02-04T00:47:20;4.80;;;3.10;;
58366;SDS011;57745;42.524;12.052;2024-02-04T00:49:45;6.28;;;3.55;;
58366;SDS011;57745;42.524;12.052;2024-02-04T00:52:11;6.43;;;3.33;;
58366;SDS011;57745;42.524;12.052;2024-02-04T00:54:36;6.75;;;3.15;;
58366;SDS011;57745;42.524;12.052;2024-02-04T00:57:02;5.95;;;3.50;;
58366;SDS011;57745;42.524;12.052;2024-02-04T00:59:27;5.22;;;2.83;;
58366;SDS011;57745;42.524;12.052;2024-02-04T01:01:53;5.55;;;3.00;;
58366;SDS011;57745;42.524;12.052;2024-02-04T01:04:18;4.72;;;2.58;;
58366;SDS011;57745;42.524;12.052;2024-02-04T01:06:43;5.10;;;2.60;;
58366;SDS011;57745;42.524;12.052;2024-02-04T01:09:09;3.55;;;2.30;;
58366;SDS011;57745;42.524;12.052;2024-02-04T01:11:34;4.55;;;1.95;;
58366;SDS011;57745;42.524;12.052;2024-02-04T01:14:00;7.60;;;2.70;;
58366;SDS011;57745;42.524;12.052;2024-02-04T01:16:25;4.43;;;2.50;;
58366;SDS011;57745;42.524;12.052;2024-02-04T01:18:51;4.10;;;1.90;;
58366;SDS011;57745;42.524;12.052;2024-02-04T01:21:17;3.75;;;2.00;;
58366;SDS011;57745;42.524;12.052;2024-02-04T01:23:42;4.10;;;1.88;;
58366;SDS011;57745;42.524;12.052;2024-02-04T01:26:08;5.50;;;2.00;;
58366;SDS011;57745;42.524;12.052;2024-02-04T01:28:33;4.07;;;2.05;;
58366;SDS011;57745;42.524;12.052;2024-02-04T01:30:59;3.47;;;2.10;;
58366;SDS011;57745;42.524;12.052;2024-02-04T01:33:24;5.15;;;2.00;;
58366;SDS011;57745;42.524;12.052;2024-02-04T01:35:50;4.65;;;2.45;;
58366;SDS011;57745;42.524;12.052;2024-02-04T01:38:16;4.68;;;2.00;;
58366;SDS011;57745;42.524;12.052;2024-02-04T01:40:42;5.78;;;1.88;;
58366;SDS011;57745;42.524;12.052;2024-02-04T01:43:07;4.20;;;1.67;;
58366;SDS011;57745;42.524;12.052;2024-02-04T01:45:33;5.53;;;1.90;;
58366;SDS011;57745;42.524;12.052;2024-02-04T01:47:58;4.03;;;1.60;;
58366;SDS011;57745;42.524;12.052;2024-02-04T01:50:24;2.20;;;1.33;;
58366;SDS011;57745;42.524;12.052;2024-02-04T01:52:49;3.50;;;1.40;;
58366;SDS011;57745;42.524;12.052;2024-02-04T01:55:17;4.43;;;1.70;;
58366;SDS011;57745;42.524;12.052;2024-02-04T01:57:43;3.67;;;1.40;;
58366;SDS011;57745;42.524;12.052;2024-02-04T02:00:09;4.35;;;1.85;;
58366;SDS011;57745;42.524;12.052;2024-02-04T02:02:38;3.55;;;1.50;;
58366;SDS011;57745;42.524;12.052;2024-02-04T02:05:05;5.00;;;1.50;;
58366;SDS011;57745;42.524;12.052;2024-02-04T02:07:31;2.13;;;1.38;;
58366;SDS011;57745;42.524;12.052;2024-02-04T02:09:56;4.47;;;1.63;;
58366;SDS011;57745;42.524;12.052;2024-02-04T02:12:25;3.45;;;1.20;;
58366;SDS011;57745;42.524;12.052;2024-02-04T02:14:59;7.57;;;1.73;;
58366;SDS011;57745;42.524;12.052;2024-02-04T02:18:13;5.20;;;1.98;;
58366;SDS011;57745;42.524;12.052;2024-02-04T02:23:25;2.67;;;1.30;;
58366;SDS011;57745;42.524;12.052;2024-02-04T02:25:59;5.55;;;1.35;;
58366;SDS011;57745;42.524;12.052;2024-02-04T02:28:25;4.78;;;1.70;;
58366;SDS011;57745;42.524;12.052;2024-02-04T02:30:51;7.03;;;1.95;;
58366;SDS011;57745;42.524;12.052;2024-02-04T02:33:16;4.30;;;1.27;;
58366;SDS011;57745;42.524;12.052;2024-02-04T02:35:42;5.55;;;1.77;;
58366;SDS011;57745;42.524;12.052;2024-02-04T02:38:23;7.47;;;1.63;;
58366;SDS011;57745;42.524;12.052;2024-02-04T02:40:58;5.70;;;1.88;;
58366;SDS011;57745;42.524;12.052;2024-02-04T02:43:24;5.65;;;1.55;;
58366;SDS011;57745;42.524;12.052;2024-02-04T02:45:51;5.20;;;2.03;;
58366;SDS011;57745;42.524;12.052;2024-02-04T02:48:17;3.03;;;1.50;;
58366;SDS011;57745;42.524;12.052;2024-02-04T02:50:43;5.28;;;1.77;;
58366;SDS011;57745;42.524;12.052;2024-02-04T02:53:08;6.43;;;1.80;;
58366;SDS011;57745;42.524;12.052;2024-02-04T02:55:34;4.78;;;1.70;;
58366;SDS011;57745;42.524;12.052;2024-02-04T02:57:59;3.47;;;1.58;;
58366;SDS011;57745;42.524;12.052;2024-02-04T03:00:24;4.82;;;1.65;;
58366;SDS011;57745;42.524;12.052;2024-02-04T03:02:50;7.05;;;2.10;;
58366;SDS011;57745;42.524;12.052;2024-02-04T03:05:15;5.82;;;1.83;;
58366;SDS011;57745;42.524;12.052;2024-02-04T03:07:41;7.32;;;2.47;;
58366;SDS011;57745;42.524;12.052;2024-02-04T03:10:07;6.13;;;1.73;;
58366;SDS011;57745;42.524;12.052;2024-02-04T03:12:33;5.65;;;1.55;;
58366;SDS011;57745;42.524;12.052;2024-02-04T03:14:59;4.20;;;1.65;;
58366;SDS011;57745;42.524;12.052;2024-02-04T03:17:24;5.63;;;1.75;;
58366;SDS011;57745;42.524;12.052;2024-02-04T03:19:50;7.43;;;2.03;;
58366;SDS011;57745;42.524;12.052;2024-02-04T03:22:21;4.95;;;1.90;;
58366;SDS011;57745;42.524;12.052;2024-02-04T03:24:49;4.28;;;1.80;;
58366;SDS011;57745;42.524;12.052;2024-02-04T03:27:16;6.78;;;2.10;;
58366;SDS011;57745;42.524;12.052;2024-02-04T03:29:42;6.88;;;1.85;;
58366;SDS011;57745;42.524;12.052;2024-02-04T03:32:08;5.40;;;1.80;;
58366;SDS011;57745;42.524;12.052;2024-02-04T03:34:33;9.18;;;1.95;;
58366;SDS011;57745;42.524;12.052;2024-02-04T03:37:00;6.43;;;1.95;;
58366;SDS011;57745;42.524;12.052;2024-02-04T03:39:26;6.03;;;2.00;;
58366;SDS011;57745;42.524;12.052;2024-02-04T03:41:51;5.60;;;1.92;;
58366;SDS011;57745;42.524;12.052;2024-02-04T03:44:17;3.85;;;1.75;;
58366;SDS011;57745;42.524;12.052;2024-02-04T03:46:42;6.03;;;1.95;;
58366;SDS011;57745;42.524;12.052;2024-02-04T03:49:08;5.07;;;1.52;;
58366;SDS011;57745;42.524;12.052;2024-02-04T03:51:34;3.70;;;1.45;;
58366;SDS011;57745;42.524;12.052;2024-02-04T03:53:59;3.95;;;1.60;;
58366;SDS011;57745;42.524;12.052;2024-02-04T03:56:25;4.70;;;1.60;;
58366;SDS011;57745;42.524;12.052;2024-02-04T03:58:51;3.90;;;1.50;;
58366;SDS011;57745;42.524;12.052;2024-02-04T04:01:16;5.40;;;1.60;;
58366;SDS011;57745;42.524;12.052;2024-02-04T04:03:42;4.72;;;1.63;;
58366;SDS011;57745;42.524;12.052;2024-02-04T04:06:09;6.00;;;1.60;;
58366;SDS011;57745;42.524;12.052;2024-02-04T04:08:35;7.95;;;2.25;;
58366;SDS011;57745;42.524;12.052;2024-02-04T04:11:01;6.53;;;1.98;;
58366;SDS011;57745;42.524;12.052;2024-02-04T04:13:26;4.43;;;2.08;;
58366;SDS011;57745;42.524;12.052;2024-02-04T04:15:52;7.85;;;2.13;;
58366;SDS011;57745;42.524;12.052;2024-02-04T04:18:19;6.90;;;2.10;;
58366;SDS011;57745;42.524;12.052;2024-02-04T04:20:44;8.32;;;2.83;;
58366;SDS011;57745;42.524;12.052;2024-02-04T04:23:10;5.55;;;1.75;;
58366;SDS011;57745;42.524;12.052;2024-02-04T04:25:35;6.97;;;2.22;;
58366;SDS011;57745;42.524;12.052;2024-02-04T04:28:00;6.40;;;1.70;;
58366;SDS011;57745;42.524;12.052;2024-02-04T04:30:26;5.93;;;1.65;;
58366;SDS011;57745;42.524;12.052;2024-02-04T04:32:51;6.00;;;1.60;;
58366;SDS011;57745;42.524;12.052;2024-02-04T04:35:17;10.07;;;2.00;;
58366;SDS011;57745;42.524;12.052;2024-02-04T04:37:42;9.63;;;2.28;;
58366;SDS011;57745;42.524;12.052;2024-02-04T04:40:08;10.38;;;2.20;;
58366;SDS011;57745;42.524;12.052;2024-02-04T04:42:34;5.22;;;1.83;;
58366;SDS011;57745;42.524;12.052;2024-02-04T04:44:59;9.18;;;1.98;;
58366;SDS011;57745;42.524;12.052;2024-02-04T04:47:25;3.88;;;1.50;;
58366;SDS011;57745;42.524;12.052;2024-02-04T04:49:50;3.90;;;1.80;;
58366;SDS011;57745;42.524;12.052;2024-02-04T04:52:16;5.68;;;1.85;;
58366;SDS011;57745;42.524;12.052;2024-02-04T04:54:42;7.32;;;1.77;;
58366;SDS011;57745;42.524;12.052;2024-02-04T04:57:07;4.95;;;1.88;;
58366;SDS011;57745;42.524;12.052;2024-02-04T04:59:33;7.03;;;1.88;;
58366;SDS011;57745;42.524;12.052;2024-02-04T05:01:59;8.73;;;1.83;;
58366;SDS011;57745;42.524;12.052;2024-02-04T05:04:25;7.70;;;1.80;;
58366;SDS011;57745;42.524;12.052;2024-02-04T05:06:51;3.90;;;1.63;;
58366;SDS011;57745;42.524;12.052;2024-02-04T05:09:16;7.25;;;1.88;;
58366;SDS011;57745;42.524;12.052;2024-02-04T05:11:42;5.70;;;1.70;;
58366;SDS011;57745;42.524;12.052;2024-02-04T05:14:08;6.10;;;1.85;;
58366;SDS011;57745;42.524;12.052;2024-02-04T05:16:35;7.03;;;1.70;;
58366;SDS011;57745;42.524;12.052;2024-02-04T05:19:01;3.40;;;1.70;;
58366;SDS011;57745;42.524;12.052;2024-02-04T05:21:27;8.95;;;1.77;;
58366;SDS011;57745;42.524;12.052;2024-02-04T05:23:53;5.85;;;1.67;;
58366;SDS011;57745;42.524;12.052;2024-02-04T05:26:18;5.43;;;1.80;;
58366;SDS011;57745;42.524;12.052;2024-02-04T05:28:44;4.80;;;1.85;;
58366;SDS011;57745;42.524;12.052;2024-02-04T05:31:09;5.32;;;1.50;;
58366;SDS011;57745;42.524;12.052;2024-02-04T05:33:35;6.35;;;1.70;;
58366;SDS011;57745;42.524;12.052;2024-02-04T05:36:00;6.13;;;1.80;;
58366;SDS011;57745;42.524;12.052;2024-02-04T05:38:25;5.88;;;1.58;;
58366;SDS011;57745;42.524;12.052;2024-02-04T05:40:51;4.80;;;1.58;;
58366;SDS011;57745;42.524;12.052;2024-02-04T05:43:16;4.78;;;2.15;;
58366;SDS011;57745;42.524;12.052;2024-02-04T05:45:42;11.55;;;2.00;;
58366;SDS011;57745;42.524;12.052;2024-02-04T05:48:07;7.28;;;2.10;;
58366;SDS011;57745;42.524;12.052;2024-02-04T05:50:33;6.53;;;1.77;;
58366;SDS011;57745;42.524;12.052;2024-02-04T05:52:59;6.50;;;1.63;;
58366;SDS011;57745;42.524;12.052;2024-02-04T05:55:24;8.20;;;1.90;;
58366;SDS011;57745;42.524;12.052;2024-02-04T05:57:50;9.00;;;2.13;;
58366;SDS011;57745;42.524;12.052;2024-02-04T06:00:15;6.57;;;1.67;;
58366;SDS011;57745;42.524;12.052;2024-02-04T06:02:41;6.07;;;2.08;;
58366;SDS011;57745;42.524;12.052;2024-02-04T06:05:08;12.68;;;3.78;;
58366;SDS011;57745;42.524;12.052;2024-02-04T06:07:34;9.27;;;3.00;;
58366;SDS011;57745;42.524;12.052;2024-02-04T06:10:00;6.55;;;2.20;;
58366;SDS011;57745;42.524;12.052;2024-02-04T06:12:28;7.93;;;2.05;;
58366;SDS011;57745;42.524;12.052;2024-02-04T06:14:54;6.63;;;2.15;;
58366;SDS011;57745;42.524;12.052;2024-02-04T06:17:20;9.05;;;2.25;;
58366;SDS011;57745;42.524;12.052;2024-02-04T06:19:45;13.63;;;4.43;;
58366;SDS011;57745;42.524;12.052;2024-02-04T06:22:10;19.05;;;7.22;;
58366;SDS011;57745;42.524;12.052;2024-02-04T06:24:36;12.73;;;4.75;;
58366;SDS011;57745;42.524;12.052;2024-02-04T06:27:04;11.25;;;4.80;;
58366;SDS011;57745;42.524;12.052;2024-02-04T06:29:29;10.07;;;3.55;;
58366;SDS011;57745;42.524;12.052;2024-02-04T06:31:55;14.50;;;3.85;;
58366;SDS011;57745;42.524;12.052;2024-02-04T06:34:21;11.98;;;3.90;;
58366;SDS011;57745;42.524;12.052;2024-02-04T06:36:47;9.65;;;3.83;;
58366;SDS011;57745;42.524;12.052;2024-02-04T06:39:13;8.43;;;3.13;;
58366;SDS011;57745;42.524;12.052;2024-02-04T06:41:38;11.05;;;3.17;;
58366;SDS011;57745;42.524;12.052;2024-02-04T06:44:04;9.02;;;2.22;;
58366;SDS011;57745;42.524;12.052;2024-02-04T06:46:30;7.05;;;2.25;;
58366;SDS011;57745;42.524;12.052;2024-02-04T06:48:55;4.38;;;1.90;;
58366;SDS011;57745;42.524;12.052;2024-02-04T06:51:21;6.00;;;2.38;;
58366;SDS011;57745;42.524;12.052;2024-02-04T06:53:47;8.27;;;2.88;;
58366;SDS011;57745;42.524;12.052;2024-02-04T06:56:12;6.57;;;2.65;;
58366;SDS011;57745;42.524;12.052;2024-02-04T06:58:38;5.80;;;2.10;;
58366;SDS011;57745;42.524;12.052;2024-02-04T07:01:04;3.17;;;2.10;;
58366;SDS011;57745;42.524;12.052;2024-02-04T07:03:29;7.97;;;2.60;;
58366;SDS011;57745;42.524;12.052;2024-02-04T07:05:55;7.78;;;2.15;;
58366;SDS011;57745;42.524;12.052;2024-02-04T07:08:20;8.07;;;2.90;;
58366;SDS011;57745;42.524;12.052;2024-02-04T07:10:46;8.60;;;2.50;;
58366;SDS011;57745;42.524;12.052;2024-02-04T07:13:12;10.35;;;2.63;;
58366;SDS011;57745;42.524;12.052;2024-02-04T07:15:37;7.18;;;2.40;;
58366;SDS011;57745;42.524;12.052;2024-02-04T07:18:03;8.45;;;2.55;;
58366;SDS011;57745;42.524;12.052;2024-02-04T07:20:29;9.13;;;2.67;;
58366;SDS011;57745;42.524;12.052;2024-02-04T07:22:55;6.18;;;2.30;;
58366;SDS011;57745;42.524;12.052;2024-02-04T07:25:20;7.93;;;2.00;;
58366;SDS011;57745;42.524;12.052;2024-02-04T07:27:46;8.63;;;2.53;;
58366;SDS011;57745;42.524;12.052;2024-02-04T07:30:11;10.23;;;2.53;;
58366;SDS011;57745;42.524;12.052;2024-02-04T07:32:37;7.88;;;2.08;;
58366;SDS011;57745;42.524;12.052;2024-02-04T07:35:03;5.22;;;2.30;;
58366;SDS011;57745;42.524;12.052;2024-02-04T07:37:28;9.05;;;3.22;;
58366;SDS011;57745;42.524;12.052;2024-02-04T07:39:54;6.65;;;2.28;;
58366;SDS011;57745;42.524;12.052;2024-02-04T07:42:19;6.38;;;2.05;;
58366;SDS011;57745;42.524;12.052;2024-02-04T07:44:45;5.57;;;2.33;;
58366;SDS011;57745;42.524;12.052;2024-02-04T07:47:10;8.75;;;2.38;;
58366;SDS011;57745;42.524;12.052;2024-02-04T07:49:36;6.43;;;2.15;;
58366;SDS011;57745;42.524;12.052;2024-02-04T07:52:02;7.63;;;2.78;;
58366;SDS011;57745;42.524;12.052;2024-02-04T07:54:28;6.30;;;2.00;;
58366;SDS011;57745;42.524;12.052;2024-02-04T07:56:54;8.63;;;3.22;;
58366;SDS011;57745;42.524;12.052;2024-02-04T07:59:19;8.65;;;2.55;;
58366;SDS011;57745;42.524;12.052;2024-02-04T08:01:45;5.10;;;2.05;;
58366;SDS011;57745;42.524;12.052;2024-02-04T08:04:10;7.30;;;1.85;;
58366;SDS011;57745;42.524;12.052;2024-02-04T08:06:36;8.63;;;2.10;;
58366;SDS011;57745;42.524;12.052;2024-02-04T08:09:03;5.63;;;2.10;;
58366;SDS011;57745;42.524;12.052;2024-02-04T08:11:29;6.30;;;1.90;;
58366;SDS011;57745;42.524;12.052;2024-02-04T08:13:54;7.95;;;2.17;;
58366;SDS011;57745;42.524;12.052;2024-02-04T08:16:20;5.35;;;1.83;;
58366;SDS011;57745;42.524;12.052;2024-02-04T08:18:46;5.18;;;1.90;;
58366;SDS011;57745;42.524;12.052;2024-02-04T08:21:11;7.03;;;2.08;;
58366;SDS011;57745;42.524;12.052;2024-02-04T08:23:37;6.95;;;2.03;;
58366;SDS011;57745;42.524;12.052;2024-02-04T08:26:04;8.00;;;2.25;;
58366;SDS011;57745;42.524;12.052;2024-02-04T08:28:30;7.75;;;2.65;;
58366;SDS011;57745;42.524;12.052;2024-02-04T08:30:56;7.05;;;2.13;;
58366;SDS011;57745;42.524;12.052;2024-02-04T08:33:21;6.05;;;1.77;;
58366;SDS011;57745;42.524;12.052;2024-02-04T08:35:47;7.53;;;2.63;;
58366;SDS011;57745;42.524;12.052;2024-02-04T08:38:13;13.50;;;2.78;;
58366;SDS011;57745;42.524;12.052;2024-02-04T08:40:39;8.27;;;1.85;;
58366;SDS011;57745;42.524;12.052;2024-02-04T08:43:04;7.10;;;1.80;;
58366;SDS011;57745;42.524;12.052;2024-02-04T08:45:30;5.05;;;2.30;;
58366;SDS011;57745;42.524;12.052;2024-02-04T08:47:55;3.75;;;2.28;;
58366;SDS011;57745;42.524;12.052;2024-02-04T08:50:20;9.48;;;2.10;;
58366;SDS011;57745;42.524;12.052;2024-02-04T08:52:46;6.32;;;2.25;;
58366;SDS011;57745;42.524;12.052;2024-02-04T08:55:11;4.90;;;2.13;;
58366;SDS011;57745;42.524;12.052;2024-02-04T08:57:37;3.53;;;1.90;;
58366;SDS011;57745;42.524;12.052;2024-02-04T09:00:02;5.57;;;1.90;;
58366;SDS011;57745;42.524;12.052;2024-02-04T09:02:28;5.80;;;2.55;;
58366;SDS011;57745;42.524;12.052;2024-02-04T09:04:54;8.10;;;2.72;;
58366;SDS011;57745;42.524;12.052;2024-02-04T09:07:19;5.95;;;2.20;;
58366;SDS011;57745;42.524;12.052;2024-02-04T09:09:45;6.75;;;2.58;;
58366;SDS011;57745;42.524;12.052;2024-02-04T09:12:10;5.50;;;1.95;;
58366;SDS011;57745;42.524;12.052;2024-02-04T09:14:36;7.05;;;2.33;;
58366;SDS011;57745;42.524;12.052;2024-02-04T09:17:02;5.00;;;2.45;;
58366;SDS011;57745;42.524;12.052;2024-02-04T09:19:29;5.50;;;2.55;;
58366;SDS011;57745;42.524;12.052;2024-02-04T09:21:56;6.13;;;2.13;;
58366;SDS011;57745;42.524;12.052;2024-02-04T09:24:21;8.70;;;2.33;;
58366;SDS011;57745;42.524;12.052;2024-02-04T09:26:47;6.70;;;2.00;;
58366;SDS011;57745;42.524;12.052;2024-02-04T09:29:12;4.93;;;1.88;;
58366;SDS011;57745;42.524;12.052;2024-02-04T09:31:38;5.85;;;2.33;;
58366;SDS011;57745;42.524;12.052;2024-02-04T09:34:03;6.20;;;2.08;;
58366;SDS011;57745;42.524;12.052;2024-02-04T09:36:29;5.72;;;2.20;;
58366;SDS011;57745;42.524;12.052;2024-02-04T09:38:54;5.07;;;2.35;;
58366;SDS011;57745;42.524;12.052;2024-02-04T09:41:21;7.15;;;2.35;;
58366;SDS011;57745;42.524;12.052;2024-02-04T09:43:50;8.70;;;2.42;;
58366;SDS011;57745;42.524;12.052;2024-02-04T09:46:16;5.75;;;2.92;;
58366;SDS011;57745;42.524;12.052;2024-02-04T09:48:42;5.45;;;2.50;;
58366;SDS011;57745;42.524;12.052;2024-02-04T09:51:10;4.85;;;2.83;;
58366;SDS011;57745;42.524;12.052;2024-02-04T09:53:35;4.75;;;2.83;;
58366;SDS011;57745;42.524;12.052;2024-02-04T09:56:02;7.47;;;3.00;;
58366;SDS011;57745;42.524;12.052;2024-02-04T09:58:29;4.65;;;2.25;;
58366;SDS011;57745;42.524;12.052;2024-02-04T10:00:54;7.90;;;2.50;;
58366;SDS011;57745;42.524;12.052;2024-02-04T10:03:20;5.47;;;2.50;;
58366;SDS011;57745;42.524;12.052;2024-02-04T10:05:46;5.93;;;2.72;;
58366;SDS011;57745;42.524;12.052;2024-02-04T10:08:12;5.57;;;2.35;;
58366;SDS011;57745;42.524;12.052;2024-02-04T10:10:39;6.78;;;2.20;;
58366;SDS011;57745;42.524;12.052;2024-02-04T10:13:06;8.25;;;2.80;;
58366;SDS011;57745;42.524;12.052;2024-02-04T10:15:32;5.10;;;2.35;;
58366;SDS011;57745;42.524;12.052;2024-02-04T10:17:58;5.07;;;2.20;;
58366;SDS011;57745;42.524;12.052;2024-02-04T10:20:23;7.40;;;1.95;;
58366;SDS011;57745;42.524;12.052;2024-02-04T10:22:49;3.22;;;2.35;;
58366;SDS011;57745;42.524;12.052;2024-02-04T10:25:19;7.43;;;2.40;;
58366;SDS011;57745;42.524;12.052;2024-02-04T10:27:46;4.38;;;2.17;;
58366;SDS011;57745;42.524;12.052;2024-02-04T10:30:12;4.38;;;1.90;;
58366;SDS011;57745;42.524;12.052;2024-02-04T10:32:38;4.70;;;2.05;;
58366;SDS011;57745;42.524;12.052;2024-02-04T10:35:03;3.80;;;2.05;;
58366;SDS011;57745;42.524;12.052;2024-02-04T10:37:29;7.32;;;2.42;;
58366;SDS011;57745;42.524;12.052;2024-02-04T10:39:55;5.47;;;2.13;;
58366;SDS011;57745;42.524;12.052;2024-02-04T10:42:29;4.45;;;2.03;;
58366;SDS011;57745;42.524;12.052;2024-02-04T10:44:57;8.13;;;2.33;;
58366;SDS011;57745;42.524;12.052;2024-02-04T10:47:25;6.55;;;2.42;;
58366;SDS011;57745;42.524;12.052;2024-02-04T10:49:58;4.60;;;2.10;;
58366;SDS011;57745;42.524;12.052;2024-02-04T10:52:25;9.10;;;4.57;;
58366;SDS011;57745;42.524;12.052;2024-02-04T10:54:52;8.30;;;2.72;;
58366;SDS011;57745;42.524;12.052;2024-02-04T10:57:21;12.73;;;5.35;;
58366;SDS011;57745;42.524;12.052;2024-02-04T10:59:52;7.40;;;3.40;;
58366;SDS011;57745;42.524;12.052;2024-02-04T11:02:19;9.40;;;4.18;;
58366;SDS011;57745;42.524;12.052;2024-02-04T11:04:45;21.10;;;10.68;;
58366;SDS011;57745;42.524;12.052;2024-02-04T11:07:14;23.27;;;11.13;;
58366;SDS011;57745;42.524;12.052;2024-02-04T11:09:40;22.17;;;11.02;;
58366;SDS011;57745;42.524;12.052;2024-02-04T11:12:08;17.27;;;9.48;;
58366;SDS011;57745;42.524;12.052;2024-02-04T11:14:40;14.93;;;9.93;;
58366;SDS011;57745;42.524;12.052;2024-02-04T11:25:52;13.43;;;6.78;;
58366;SDS011;57745;42.524;12.052;2024-02-04T11:28:20;9.85;;;5.53;;
58366;SDS011;57745;42.524;12.052;2024-02-04T11:30:47;8.25;;;4.85;;
58366;SDS011;57745;42.524;12.052;2024-02-04T11:33:17;11.45;;;5.60;;
58366;SDS011;57745;42.524;12.052;2024-02-04T11:35:43;9.85;;;5.57;;
58366;SDS011;57745;42.524;12.052;2024-02-04T11:38:09;9.55;;;4.70;;
58366;SDS011;57745;42.524;12.052;2024-02-04T11:40:37;8.85;;;4.45;;
58366;SDS011;57745;42.524;12.052;2024-02-04T11:43:12;7.38;;;3.40;;
58366;SDS011;57745;42.524;12.052;2024-02-04T11:45:40;9.40;;;4.10;;
58366;SDS011;57745;42.524;12.052;2024-02-04T11:48:11;8.25;;;2.53;;
58366;SDS011;57745;42.524;12.052;2024-02-04T11:50:38;11.10;;;4.15;;
58366;SDS011;57745;42.524;12.052;2024-02-04T11:53:09;8.13;;;3.78;;
58366;SDS011;57745;42.524;12.052;2024-02-04T11:55:35;5.55;;;2.72;;
58366;SDS011;57745;42.524;12.052;2024-02-04T11:58:01;5.28;;;2.65;;
58366;SDS011;57745;42.524;12.052;2024-02-04T12:00:31;6.68;;;2.50;;
58366;SDS011;57745;42.524;12.052;2024-02-04T12:05:34;9.38;;;2.50;;
58366;SDS011;57745;42.524;12.052;2024-02-04T12:08:04;8.15;;;2.70;;
58366;SDS011;57745;42.524;12.052;2024-02-04T12:10:32;5.57;;;2.20;;
58366;SDS011;57745;42.524;12.052;2024-02-04T12:12:58;6.38;;;2.80;;
58366;SDS011;57745;42.524;12.052;2024-02-04T12:15:25;7.25;;;3.40;;
58366;SDS011;57745;42.524;12.052;2024-02-04T12:17:50;5.28;;;2.90;;
58366;SDS011;57745;42.524;12.052;2024-02-04T12:20:16;8.35;;;3.40;;
58366;SDS011;57745;42.524;12.052;2024-02-04T12:22:42;6.15;;;3.85;;
58366;SDS011;57745;42.524;12.052;2024-02-04T12:25:08;6.28;;;3.63;;
58366;SDS011;57745;42.524;12.052;2024-02-04T12:27:34;8.80;;;3.47;;
58366;SDS011;57745;42.524;12.052;2024-02-04T12:30:00;9.93;;;2.95;;
58366;SDS011;57745;42.524;12.052;2024-02-04T12:32:25;5.75;;;2.85;;
58366;SDS011;57745;42.524;12.052;2024-02-04T12:34:51;5.97;;;2.83;;
58366;SDS011;57745;42.524;12.052;2024-02-04T12:37:19;6.25;;;2.53;;
58366;SDS011;57745;42.524;12.052;2024-02-04T12:39:45;4.28;;;2.20;;
58366;SDS011;57745;42.524;12.052;2024-02-04T12:42:14;5.68;;;2.80;;
58366;SDS011;57745;42.524;12.052;2024-02-04T12:44:43;4.85;;;2.50;;
58366;SDS011;57745;42.524;12.052;2024-02-04T12:47:10;5.85;;;2.17;;
58366;SDS011;57745;42.524;12.052;2024-02-04T12:49:36;7.50;;;2.13;;
58366;SDS011;57745;42.524;12.052;2024-02-04T12:52:04;7.72;;;2.30;;
58366;SDS011;57745;42.524;12.052;2024-02-04T12:54:31;4.88;;;1.83;;
58366;SDS011;57745;42.524;12.052;2024-02-04T12:57:08;7.50;;;3.00;;
58366;SDS011;57745;42.524;12.052;2024-02-04T12:59:36;7.30;;;3.13;;
58366;SDS011;57745;42.524;12.052;2024-02-04T13:02:03;7.22;;;2.20;;
58366;SDS011;57745;42.524;12.052;2024-02-04T13:04:37;5.22;;;2.10;;
58366;SDS011;57745;42.524;12.052;2024-02-04T13:07:07;4.47;;;2.10;;
58366;SDS011;57745;42.524;12.052;2024-02-04T13:09:34;4.30;;;1.90;;
58366;SDS011;57745;42.524;12.052;2024-02-04T13:12:04;4.85;;;2.10;;
58366;SDS011;57745;42.524;12.052;2024-02-04T13:14:30;4.60;;;1.70;;
58366;SDS011;57745;42.524;12.052;2024-02-04T13:16:56;6.18;;;2.22;;
58366;SDS011;57745;42.524;12.052;2024-02-04T13:19:22;6.32;;;2.60;;
58366;SDS011;57745;42.524;12.052;2024-02-04T13:21:47;5.35;;;2.22;;
58366;SDS011;57745;42.524;12.052;2024-02-04T13:24:13;5.68;;;2.25;;
58366;SDS011;57745;42.524;12.052;2024-02-04T13:26:38;7.18;;;2.13;;
58366;SDS011;57745;42.524;12.052;2024-02-04T13:29:04;3.40;;;2.03;;
58366;SDS011;57745;42.524;12.052;2024-02-04T13:31:29;3.63;;;1.63;;
58366;SDS011;57745;42.524;12.052;2024-02-04T13:33:55;8.77;;;2.63;;
58366;SDS011;57745;42.524;12.052;2024-02-04T13:36:20;4.30;;;2.33;;
58366;SDS011;57745;42.524;12.052;2024-02-04T13:38:46;9.48;;;3.80;;
58366;SDS011;57745;42.524;12.052;2024-02-04T13:41:11;3.67;;;2.38;;
58366;SDS011;57745;42.524;12.052;2024-02-04T13:43:37;6.05;;;2.40;;
58366;SDS011;57745;42.524;12.052;2024-02-04T13:46:02;6.28;;;2.50;;
58366;SDS011;57745;42.524;12.052;2024-02-04T13:48:28;5.72;;;2.22;;
58366;SDS011;57745;42.524;12.052;2024-02-04T13:50:53;6.93;;;2.05;;
58366;SDS011;57745;42.524;12.052;2024-02-04T13:53:19;6.25;;;2.10;;
58366;SDS011;57745;42.524;12.052;2024-02-04T13:55:46;5.25;;;2.10;;
58366;SDS011;57745;42.524;12.052;2024-02-04T13:58:12;6.03;;;2.45;;
58366;SDS011;57745;42.524;12.052;2024-02-04T14:00:37;9.60;;;4.22;;
58366;SDS011;57745;42.524;12.052;2024-02-04T14:03:03;10.25;;;3.97;;
58366;SDS011;57745;42.524;12.052;2024-02-04T14:05:29;7.35;;;3.60;;
58366;SDS011;57745;42.524;12.052;2024-02-04T14:07:55;9.35;;;3.35;;
58366;SDS011;57745;42.524;12.052;2024-02-04T14:10:20;5.75;;;2.95;;
58366;SDS011;57745;42.524;12.052;2024-02-04T14:12:46;7.80;;;3.35;;
58366;SDS011;57745;42.524;12.052;2024-02-04T14:15:12;6.80;;;3.53;;
58366;SDS011;57745;42.524;12.052;2024-02-04T14:17:38;5.50;;;2.70;;
58366;SDS011;57745;42.524;12.052;2024-02-04T14:20:05;6.68;;;2.67;;
58366;SDS011;57745;42.524;12.052;2024-02-04T14:22:31;6.72;;;2.67;;
58366;SDS011;57745;42.524;12.052;2024-02-04T14:24:57;5.72;;;2.55;;
58366;SDS011;57745;42.524;12.052;2024-02-04T14:27:23;6.68;;;3.13;;
58366;SDS011;57745;42.524;12.052;2024-02-04T14:29:49;6.60;;;2.70;;
58366;SDS011;57745;42.524;12.052;2024-02-04T14:32:14;6.82;;;2.90;;
58366;SDS011;57745;42.524;12.052;2024-02-04T14:34:40;5.47;;;2.90;;
58366;SDS011;57745;42.524;12.052;2024-02-04T14:37:06;8.55;;;3.25;;
58366;SDS011;57745;42.524;12.052;2024-02-04T14:39:32;4.90;;;2.65;;
58366;SDS011;57745;42.524;12.052;2024-02-04T14:41:57;8.10;;;3.10;;